sensor_id;sensor_type;location;lat;lon;timestamp;pressure;altitude;pressure_sealevel;temperature;humidity
13068;BME280;6600;51.362;6.686;2023-02-01T00:01:07;101617.22;;;7.48;100.00
13068;BME280;6600;51.362;6.686;2023-02-01T00:03:33;101616.38;;;7.47;100.00
13068;BME280;6600;51.362;6.686;2023-02-01T00:05:59;101609.38;;;7.46;100.00
13068;BME280;6600;51.362;6.686;2023-02-01T00:08:25;101612.88;;;7.47;100.00
13068;BME280;6600;51.362;6.686;2023-02-01T00:11:08;101610.47;;;7.60;100.00
13068;BME280;6600;51.362;6.686;2023-02-01T00:13:36;101606.50;;;7.56;100.00
13068;BME280;6600;51.362;6.686;2023-02-01T00:16:10;101601.34;;;7.54;100.00
13068;BME280;6600;51.362;6.686;2023-02-01T00:18:35;101603.66;;;7.57;100.00
13068;BME280;6600;51.362;6.686;2023-02-01T00:21:01;101600.81;;;7.59;100.00
13068;BME280;6600;51.362;6.686;2023-02-01T00:23:26;101603.97;;;7.62;100.00
13068;BME280;6600;51.362;6.686;2023-02-01T00:25:52;101603.19;;;7.54;100.00
13068;BME280;6600;51.362;6.686;2023-02-01T00:28:17;101596.03;;;7.54;100.00
13068;BME280;6600;51.362;6.686;2023-02-01T00:30:43;101599.16;;;7.58;100.00
13068;BME280;6600;51.362;6.686;2023-02-01T00:33:08;101603.66;;;7.57;100.00
13068;BME280;6600;51.362;6.686;2023-02-01T00:35:34;101598.22;;;7.51;100.00
13068;BME280;6600;51.362;6.686;2023-02-01T00:38:00;101590.38;;;7.49;100.00
13068;BME280;6600;51.362;6.686;2023-02-01T00:40:26;101587.88;;;7.48;100.00
13068;BME280;6600;51.362;6.686;2023-02-01T00:42:51;101577.16;;;7.56;100.00
13068;BME280;6600;51.362;6.686;2023-02-01T00:45:17;101553.84;;;7.58;100.00
13068;BME280;6600;51.362;6.686;2023-02-01T00:47:42;101545.00;;;7.57;100.00
13068;BME280;6600;51.362;6.686;2023-02-01T00:50:08;101542.13;;;7.59;100.00
13068;BME280;6600;51.362;6.686;2023-02-01T00:52:34;101549.00;;;7.53;100.00
13068;BME280;6600;51.362;6.686;2023-02-01T00:54:59;101535.38;;;7.48;100.00
13068;BME280;6600;51.362;6.686;2023-02-01T00:57:24;101548.88;;;7.47;100.00
13068;BME280;6600;51.362;6.686;2023-02-01T00:59:49;101547.91;;;7.48;100.00
13068;BME280;6600;51.362;6.686;2023-02-01T01:02:15;101555.34;;;7.52;100.00
13068;BME280;6600;51.362;6.686;2023-02-01T01:04:40;101578.69;;;7.50;100.00
13068;BME280;6600;51.362;6.686;2023-02-01T01:07:06;101577.00;;;7.57;100.00
13068;BME280;6600;51.362;6.686;2023-02-01T01:09:31;101579.41;;;7.44;100.00
13068;BME280;6600;51.362;6.686;2023-02-01T01:11:56;101583.03;;;7.51;100.00
13068;BME280;6600;51.362;6.686;2023-02-01T01:14:22;101579.34;;;7.52;100.00
13068;BME280;6600;51.362;6.686;2023-02-01T01:16:47;101581.00;;;7.53;100.00
13068;BME280;6600;51.362;6.686;2023-02-01T01:19:12;101583.03;;;7.51;100.00
13068;BME280;6600;51.362;6.686;2023-02-01T01:21:38;101588.69;;;7.48;100.00
13068;BME280;6600;51.362;6.686;2023-02-01T01:24:03;101581.41;;;7.42;100.00
13068;BME280;6600;51.362;6.686;2023-02-01T01:26:29;101583.09;;;7.35;100.00
13068;BME280;6600;51.362;6.686;2023-02-01T01:28:58;101581.09;;;7.37;100.00
13068;BME280;6600;51.362;6.686;2023-02-01T01:31:24;101580.47;;;7.27;100.00
13068;BME280;6600;51.362;6.686;2023-02-01T01:33:52;101586.47;;;7.29;100.00
13068;BME280;6600;51.362;6.686;2023-02-01T01:36:18;101584.16;;;7.26;100.00
13068;BME280;6600;51.362;6.686;2023-02-01T01:38:43;101581.13;;;7.29;100.00
13068;BME280;6600;51.362;6.686;2023-02-01T01:41:14;101592.78;;;7.28;100.00
13068;BME280;6600;51.362;6.686;2023-02-01T01:46:18;101580.31;;;7.21;100.00
13068;BME280;6600;51.362;6.686;2023-02-01T01:48:44;101574.84;;;7.14;100.00
13068;BME280;6600;51.362;6.686;2023-02-01T01:51:13;101565.00;;;7.23;100.00
13068;BME280;6600;51.362;6.686;2023-02-01T01:54:05;101557.69;;;7.17;100.00
13068;BME280;6600;51.362;6.686;2023-02-01T01:56:32;101565.50;;;7.18;100.00
13068;BME280;6600;51.362;6.686;2023-02-01T01:58:59;101561.34;;;7.16;99.95
13068;BME280;6600;51.362;6.686;2023-02-01T02:01:24;101559.69;;;7.15;99.63
13068;BME280;6600;51.362;6.686;2023-02-01T02:03:51;101560.94;;;6.96;99.81
13068;BME280;6600;51.362;6.686;2023-02-01T02:09:06;101550.94;;;6.90;100.00
13068;BME280;6600;51.362;6.686;2023-02-01T02:11:31;101556.75;;;6.93;100.00
13068;BME280;6600;51.362;6.686;2023-02-01T02:13:58;101547.97;;;6.85;100.00
13068;BME280;6600;51.362;6.686;2023-02-01T02:32:57;101544.69;;;6.67;100.00
13068;BME280;6600;51.362;6.686;2023-02-01T02:35:50;101534.88;;;6.59;100.00
13068;BME280;6600;51.362;6.686;2023-02-01T02:38:32;101542.03;;;6.58;100.00
13068;BME280;6600;51.362;6.686;2023-02-01T02:41:15;101542.06;;;6.50;100.00
13068;BME280;6600;51.362;6.686;2023-02-01T02:44:12;101529.75;;;6.41;100.00
13068;BME280;6600;51.362;6.686;2023-02-01T02:47:01;101535.41;;;6.54;99.93
13068;BME280;6600;51.362;6.686;2023-02-01T02:53:13;101527.41;;;6.54;100.00
13068;BME280;6600;51.362;6.686;2023-02-01T02:55:59;101528.78;;;6.34;100.00
13068;BME280;6600;51.362;6.686;2023-02-01T02:58:46;101540.09;;;6.44;100.00
13068;BME280;6600;51.362;6.686;2023-02-01T03:01:31;101521.09;;;6.39;100.00
13068;BME280;6600;51.362;6.686;2023-02-01T03:04:15;101516.63;;;6.40;100.00
13068;BME280;6600;51.362;6.686;2023-02-01T03:06:43;101522.09;;;6.46;100.00
13068;BME280;6600;51.362;6.686;2023-02-01T03:09:14;101528.41;;;6.53;100.00
13068;BME280;6600;51.362;6.686;2023-02-01T03:11:43;101511.25;;;6.56;100.00
13068;BME280;6600;51.362;6.686;2023-02-01T03:14:32;101509.75;;;6.62;100.00
13068;BME280;6600;51.362;6.686;2023-02-01T03:17:07;101510.41;;;6.55;100.00
13068;BME280;6600;51.362;6.686;2023-02-01T03:19:38;101517.25;;;6.50;100.00
13068;BME280;6600;51.362;6.686;2023-02-01T03:22:11;101508.09;;;6.60;100.00
13068;BME280;6600;51.362;6.686;2023-02-01T03:24:44;101503.59;;;6.61;100.00
13068;BME280;6600;51.362;6.686;2023-02-01T03:27:19;101498.75;;;6.65;100.00
13068;BME280;6600;51.362;6.686;2023-02-01T03:32:36;101484.97;;;6.61;100.00
13068;BME280;6600;51.362;6.686;2023-02-01T03:35:44;101479.09;;;6.66;100.00
13068;BME280;6600;51.362;6.686;2023-02-01T03:41:03;101498.09;;;6.63;100.00
13068;BME280;6600;51.362;6.686;2023-02-01T03:43:34;101494.75;;;6.69;100.00
13068;BME280;6600;51.362;6.686;2023-02-01T03:46:06;101487.75;;;6.68;100.00
13068;BME280;6600;51.362;6.686;2023-02-01T03:48:35;101482.09;;;6.71;100.00
13068;BME280;6600;51.362;6.686;2023-02-01T03:51:03;101482.56;;;6.82;100.00
13068;BME280;6600;51.362;6.686;2023-02-01T03:53:30;101491.34;;;6.83;100.00
13068;BME280;6600;51.362;6.686;2023-02-01T03:55:56;101480.22;;;6.79;100.00
13068;BME280;6600;51.362;6.686;2023-02-01T03:58:22;101481.75;;;6.74;100.00
13068;BME280;6600;51.362;6.686;2023-02-01T04:00:54;101479.06;;;6.82;100.00
13068;BME280;6600;51.362;6.686;2023-02-01T04:03:20;101477.13;;;6.68;100.00
13068;BME280;6600;51.362;6.686;2023-02-01T04:05:47;101474.44;;;6.76;100.00
13068;BME280;6600;51.362;6.686;2023-02-01T04:08:13;101454.63;;;6.70;100.00
13068;BME280;6600;51.362;6.686;2023-02-01T04:10:38;101442.78;;;6.73;100.00
13068;BME280;6600;51.362;6.686;2023-02-01T04:13:03;101436.34;;;6.67;100.00
13068;BME280;6600;51.362;6.686;2023-02-01T04:15:28;101439.00;;;6.67;100.00
13068;BME280;6600;51.362;6.686;2023-02-01T04:17:54;101443.97;;;6.70;100.00
13068;BME280;6600;51.362;6.686;2023-02-01T04:20:19;101447.50;;;6.63;100.00
13068;BME280;6600;51.362;6.686;2023-02-01T04:22:44;101447.53;;;6.54;100.00
13068;BME280;6600;51.362;6.686;2023-02-01T04:25:10;101447.19;;;6.57;100.00
13068;BME280;6600;51.362;6.686;2023-02-01T04:27:35;101457.84;;;6.49;100.00
13068;BME280;6600;51.362;6.686;2023-02-01T04:30:01;101460.72;;;6.48;100.00
13068;BME280;6600;51.362;6.686;2023-02-01T04:32:26;101477.31;;;6.50;100.00
13068;BME280;6600;51.362;6.686;2023-02-01T04:34:52;101480.78;;;6.58;100.00
13068;BME280;6600;51.362;6.686;2023-02-01T04:37:17;101477.47;;;6.56;100.00
13068;BME280;6600;51.362;6.686;2023-02-01T04:39:42;101471.84;;;6.51;100.00
13068;BME280;6600;51.362;6.686;2023-02-01T04:42:08;101479.84;;;6.51;100.00
13068;BME280;6600;51.362;6.686;2023-02-01T04:44:34;101486.09;;;6.67;100.00
13068;BME280;6600;51.362;6.686;2023-02-01T04:46:59;101483.63;;;6.57;100.00
13068;BME280;6600;51.362;6.686;2023-02-01T04:49:24;101484.13;;;6.60;100.00
13068;BME280;6600;51.362;6.686;2023-02-01T04:51:51;101470.47;;;6.55;100.00
13068;BME280;6600;51.362;6.686;2023-02-01T04:54:17;101474.19;;;6.46;100.00
13068;BME280;6600;51.362;6.686;2023-02-01T04:56:42;101471.16;;;6.49;100.00
13068;BME280;6600;51.362;6.686;2023-02-01T04:59:07;101472.50;;;6.45;100.00
13068;BME280;6600;51.362;6.686;2023-02-01T05:01:33;101487.00;;;6.43;100.00
13068;BME280;6600;51.362;6.686;2023-02-01T05:03:58;101491.31;;;6.44;100.00
13068;BME280;6600;51.362;6.686;2023-02-01T05:06:24;101496.31;;;6.47;100.00
13068;BME280;6600;51.362;6.686;2023-02-01T05:08:49;101486.59;;;6.62;100.00
13068;BME280;6600;51.362;6.686;2023-02-01T05:11:15;101471.66;;;6.53;100.00
13068;BME280;6600;51.362;6.686;2023-02-01T05:13:59;101483.16;;;6.45;100.00
13068;BME280;6600;51.362;6.686;2023-02-01T05:16:25;101475.50;;;6.42;100.00
13068;BME280;6600;51.362;6.686;2023-02-01T05:18:51;101472.16;;;6.48;100.00
13068;BME280;6600;51.362;6.686;2023-02-01T05:21:16;101472.34;;;6.39;100.00
13068;BME280;6600;51.362;6.686;2023-02-01T05:23:42;101476.84;;;6.38;100.00
13068;BME280;6600;51.362;6.686;2023-02-01T05:26:26;101484.53;;;6.33;100.00
13068;BME280;6600;51.362;6.686;2023-02-01T05:28:51;101488.19;;;6.32;100.00
13068;BME280;6600;51.362;6.686;2023-02-01T05:31:17;101487.53;;;6.30;100.00
13068;BME280;6600;51.362;6.686;2023-02-01T05:33:42;101486.53;;;6.23;100.00
13068;BME280;6600;51.362;6.686;2023-02-01T05:36:08;101487.53;;;6.22;100.00
13068;BME280;6600;51.362;6.686;2023-02-01T05:38:33;101467.91;;;6.23;100.00
13068;BME280;6600;51.362;6.686;2023-02-01T05:40:58;101462.94;;;6.20;100.00
13068;BME280;6600;51.362;6.686;2023-02-01T05:43:24;101461.25;;;6.19;100.00
13068;BME280;6600;51.362;6.686;2023-02-01T05:45:51;101467.75;;;6.17;100.00
13068;BME280;6600;51.362;6.686;2023-02-01T05:48:17;101471.56;;;6.22;100.00
13068;BME280;6600;51.362;6.686;2023-02-01T05:50:42;101479.38;;;6.16;100.00
13068;BME280;6600;51.362;6.686;2023-02-01T05:53:08;101473.88;;;6.25;100.00
13068;BME280;6600;51.362;6.686;2023-02-01T05:55:33;101465.75;;;6.19;100.00
13068;BME280;6600;51.362;6.686;2023-02-01T05:57:59;101463.25;;;6.17;100.00
13068;BME280;6600;51.362;6.686;2023-02-01T06:00:24;101457.13;;;6.08;100.00
13068;BME280;6600;51.362;6.686;2023-02-01T06:02:49;101463.91;;;6.11;100.00
13068;BME280;6600;51.362;6.686;2023-02-01T06:05:15;101456.97;;;6.10;100.00
13068;BME280;6600;51.362;6.686;2023-02-01T06:07:40;101452.47;;;5.94;100.00
13068;BME280;6600;51.362;6.686;2023-02-01T06:10:06;101458.59;;;6.11;100.00
13068;BME280;6600;51.362;6.686;2023-02-01T06:12:32;101470.91;;;6.12;100.00
13068;BME280;6600;51.362;6.686;2023-02-01T06:14:57;101479.19;;;6.17;100.00
13068;BME280;6600;51.362;6.686;2023-02-01T06:17:24;101481.88;;;6.17;100.00
13068;BME280;6600;51.362;6.686;2023-02-01T06:19:49;101485.50;;;6.24;100.00
13068;BME280;6600;51.362;6.686;2023-02-01T06:22:15;101471.38;;;6.32;100.00
13068;BME280;6600;51.362;6.686;2023-02-01T06:24:40;101468.91;;;6.30;100.00
13068;BME280;6600;51.362;6.686;2023-02-01T06:27:06;101468.84;;;6.38;100.00
13068;BME280;6600;51.362;6.686;2023-02-01T06:29:32;101474.53;;;6.43;100.00
13068;BME280;6600;51.362;6.686;2023-02-01T06:31:57;101493.47;;;6.48;100.00
13068;BME280;6600;51.362;6.686;2023-02-01T06:34:23;101489.66;;;6.51;100.00
13068;BME280;6600;51.362;6.686;2023-02-01T06:36:49;101482.16;;;6.54;100.00
13068;BME280;6600;51.362;6.686;2023-02-01T06:39:14;101488.78;;;6.58;100.00
13068;BME280;6600;51.362;6.686;2023-02-01T06:41:50;101486.47;;;6.55;100.00
13068;BME280;6600;51.362;6.686;2023-02-01T06:44:16;101472.78;;;6.58;100.00
13068;BME280;6600;51.362;6.686;2023-02-01T06:46:42;101478.78;;;6.69;100.00
13068;BME280;6600;51.362;6.686;2023-02-01T06:49:07;101475.78;;;6.64;100.00
13068;BME280;6600;51.362;6.686;2023-02-01T06:51:33;101479.09;;;6.66;100.00
13068;BME280;6600;51.362;6.686;2023-02-01T06:53:59;101479.09;;;6.66;100.00
13068;BME280;6600;51.362;6.686;2023-02-01T06:56:24;101475.44;;;6.67;100.00
13068;BME280;6600;51.362;6.686;2023-02-01T06:58:50;101482.25;;;6.69;100.00
13068;BME280;6600;51.362;6.686;2023-02-01T07:01:16;101483.56;;;6.81;100.00
13068;BME280;6600;51.362;6.686;2023-02-01T07:03:42;101486.03;;;6.83;100.00
13068;BME280;6600;51.362;6.686;2023-02-01T07:06:08;101494.69;;;6.85;100.00
13068;BME280;6600;51.362;6.686;2023-02-01T07:08:35;101502.34;;;6.80;100.00
13068;BME280;6600;51.362;6.686;2023-02-01T07:11:06;101497.66;;;6.90;100.00
13068;BME280;6600;51.362;6.686;2023-02-01T07:13:32;101507.69;;;6.80;100.00
13068;BME280;6600;51.362;6.686;2023-02-01T07:16:03;101504.88;;;6.81;100.00
13068;BME280;6600;51.362;6.686;2023-02-01T07:18:29;101509.19;;;6.82;100.00
13068;BME280;6600;51.362;6.686;2023-02-01T07:20:55;101505.66;;;6.90;100.00
13068;BME280;6600;51.362;6.686;2023-02-01T07:23:21;101503.69;;;6.84;100.00
13068;BME280;6600;51.362;6.686;2023-02-01T07:25:46;101497.72;;;6.74;100.00
13068;BME280;6600;51.362;6.686;2023-02-01T07:28:12;101495.06;;;6.74;100.00
13068;BME280;6600;51.362;6.686;2023-02-01T07:30:37;101490.84;;;6.87;100.00
13068;BME280;6600;51.362;6.686;2023-02-01T07:33:03;101491.19;;;6.84;100.00
13068;BME280;6600;51.362;6.686;2023-02-01T07:35:29;101496.66;;;6.99;100.00
13068;BME280;6600;51.362;6.686;2023-02-01T07:37:54;101501.66;;;6.94;100.00
13068;BME280;6600;51.362;6.686;2023-02-01T07:40:20;101501.66;;;6.94;100.00
13068;BME280;6600;51.362;6.686;2023-02-01T07:42:50;101507.94;;;7.09;100.00
13068;BME280;6600;51.362;6.686;2023-02-01T07:45:15;101511.94;;;7.05;100.00
13068;BME280;6600;51.362;6.686;2023-02-01T07:47:41;101509.59;;;7.10;100.00
13068;BME280;6600;51.362;6.686;2023-02-01T07:50:06;101511.38;;;7.18;100.00
13068;BME280;6600;51.362;6.686;2023-02-01T07:52:32;101516.06;;;7.07;100.00
13068;BME280;6600;51.362;6.686;2023-02-01T07:54:57;101516.41;;;7.13;100.00
13068;BME280;6600;51.362;6.686;2023-02-01T07:57:23;101515.88;;;7.17;100.00
13068;BME280;6600;51.362;6.686;2023-02-01T07:59:48;101520.03;;;7.20;100.00
13068;BME280;6600;51.362;6.686;2023-02-01T08:02:32;101516.63;;;7.03;100.00
13068;BME280;6600;51.362;6.686;2023-02-01T08:04:57;101509.28;;;6.97;100.00
13068;BME280;6600;51.362;6.686;2023-02-01T08:07:22;101514.25;;;7.08;100.00
13068;BME280;6600;51.362;6.686;2023-02-01T08:09:47;101521.28;;;7.01;100.00
13068;BME280;6600;51.362;6.686;2023-02-01T08:12:13;101519.41;;;7.09;100.00
13068;BME280;6600;51.362;6.686;2023-02-01T08:14:38;101516.56;;;7.11;100.00
13068;BME280;6600;51.362;6.686;2023-02-01T08:17:06;101530.91;;;7.10;100.00
13068;BME280;6600;51.362;6.686;2023-02-01T08:19:31;101529.59;;;7.06;100.00
13068;BME280;6600;51.362;6.686;2023-02-01T08:21:57;101533.59;;;7.02;100.00
13068;BME280;6600;51.362;6.686;2023-02-01T08:24:22;101535.28;;;7.03;100.00
13068;BME280;6600;51.362;6.686;2023-02-01T08:26:47;101529.94;;;7.03;100.00
13068;BME280;6600;51.362;6.686;2023-02-01T08:29:13;101538.59;;;6.97;100.00
13068;BME280;6600;51.362;6.686;2023-02-01T08:31:39;101541.25;;;7.05;100.00
13068;BME280;6600;51.362;6.686;2023-02-01T08:34:06;101549.94;;;6.99;100.00
13068;BME280;6600;51.362;6.686;2023-02-01T08:36:33;101557.38;;;7.03;100.00
13068;BME280;6600;51.362;6.686;2023-02-01T08:38:59;101553.91;;;7.03;100.00
13068;BME280;6600;51.362;6.686;2023-02-01T08:41:27;101553.59;;;6.98;100.00
13068;BME280;6600;51.362;6.686;2023-02-01T08:43:52;101561.38;;;7.07;100.00
13068;BME280;6600;51.362;6.686;2023-02-01T08:46:19;101558.22;;;7.12;100.00
13068;BME280;6600;51.362;6.686;2023-02-01T08:48:46;101572.72;;;7.09;100.00
13068;BME280;6600;51.362;6.686;2023-02-01T08:51:13;101569.50;;;7.14;100.00
13068;BME280;6600;51.362;6.686;2023-02-01T08:53:39;101559.91;;;7.05;100.00
13068;BME280;6600;51.362;6.686;2023-02-01T08:56:11;101563.53;;;7.12;100.00
13068;BME280;6600;51.362;6.686;2023-02-01T08:58:37;101568.34;;;7.17;100.00
13068;BME280;6600;51.362;6.686;2023-02-01T09:01:11;101563.53;;;7.20;100.00
13068;BME280;6600;51.362;6.686;2023-02-01T09:03:37;101558.38;;;7.10;100.00
13068;BME280;6600;51.362;6.686;2023-02-01T09:06:04;101553.16;;;7.25;100.00
13068;BME280;6600;51.362;6.686;2023-02-01T09:08:31;101553.84;;;7.19;100.00
13068;BME280;6600;51.362;6.686;2023-02-01T09:11:00;101553.34;;;7.24;100.00
13068;BME280;6600;51.362;6.686;2023-02-01T09:13:27;101545.50;;;7.22;100.00
13068;BME280;6600;51.362;6.686;2023-02-01T09:15:52;101539.91;;;7.09;100.00
13068;BME280;6600;51.362;6.686;2023-02-01T09:18:17;101544.25;;;7.02;100.00
13068;BME280;6600;51.362;6.686;2023-02-01T09:20:43;101535.91;;;7.05;100.00
13068;BME280;6600;51.362;6.686;2023-02-01T09:23:08;101532.69;;;7.18;100.00
13068;BME280;6600;51.362;6.686;2023-02-01T09:25:33;101540.34;;;7.21;100.00
13068;BME280;6600;51.362;6.686;2023-02-01T09:27:58;101546.00;;;7.26;100.00
13068;BME280;6600;51.362;6.686;2023-02-01T09:30:24;101536.78;;;7.36;100.00
13068;BME280;6600;51.362;6.686;2023-02-01T09:32:49;101534.28;;;7.35;100.00
13068;BME280;6600;51.362;6.686;2023-02-01T09:35:14;101525.13;;;7.37;100.00
13068;BME280;6600;51.362;6.686;2023-02-01T09:37:40;101525.97;;;7.30;100.00
13068;BME280;6600;51.362;6.686;2023-02-01T09:40:05;101531.69;;;7.49;100.00
13068;BME280;6600;51.362;6.686;2023-02-01T09:48:02;101533.41;;;7.42;100.00
13068;BME280;6600;51.362;6.686;2023-02-01T09:50:33;101528.38;;;7.47;100.00
13068;BME280;6600;51.362;6.686;2023-02-01T09:55:46;101524.38;;;7.51;100.00
13068;BME280;6600;51.362;6.686;2023-02-01T09:58:35;101530.63;;;7.58;100.00
13068;BME280;6600;51.362;6.686;2023-02-01T10:01:04;101531.59;;;7.66;100.00
13068;BME280;6600;51.362;6.686;2023-02-01T10:03:32;101529.25;;;7.71;100.00
13068;BME280;6600;51.362;6.686;2023-02-01T10:11:42;101535.66;;;7.84;100.00
13068;BME280;6600;51.362;6.686;2023-02-01T10:19:48;101519.75;;;8.13;99.11
13068;BME280;6600;51.362;6.686;2023-02-01T10:27:50;101515.22;;;8.14;97.90
13068;BME280;6600;51.362;6.686;2023-02-01T10:30:20;101502.41;;;8.32;98.08
13068;BME280;6600;51.362;6.686;2023-02-01T10:32:48;101506.44;;;8.28;97.54
13068;BME280;6600;51.362;6.686;2023-02-01T10:37:43;101521.50;;;8.21;97.80
13068;BME280;6600;51.362;6.686;2023-02-01T10:42:47;101511.91;;;8.12;98.48
13068;BME280;6600;51.362;6.686;2023-02-01T10:45:19;101510.19;;;8.19;97.97
13068;BME280;6600;51.362;6.686;2023-02-01T10:47:47;101515.78;;;8.24;97.19
13068;BME280;6600;51.362;6.686;2023-02-01T10:53:02;101526.13;;;8.27;97.38
13068;BME280;6600;51.362;6.686;2023-02-01T10:55:38;101516.53;;;8.41;97.20
13068;BME280;6600;51.362;6.686;2023-02-01T10:58:15;101510.34;;;8.40;96.98
13068;BME280;6600;51.362;6.686;2023-02-01T11:06:00;101512.00;;;8.41;96.75
13068;BME280;6600;51.362;6.686;2023-02-01T11:08:25;101502.41;;;8.32;96.68
13068;BME280;6600;51.362;6.686;2023-02-01T11:11:00;101506.66;;;8.41;96.52
13068;BME280;6600;51.362;6.686;2023-02-01T11:13:37;101492.13;;;8.58;96.56
13068;BME280;6600;51.362;6.686;2023-02-01T11:16:04;101483.66;;;8.70;95.96
13068;BME280;6600;51.362;6.686;2023-02-01T11:18:33;101488.16;;;8.69;95.44
13068;BME280;6600;51.362;6.686;2023-02-01T11:21:00;101470.09;;;8.56;95.76
13068;BME280;6600;51.362;6.686;2023-02-01T11:23:27;101479.41;;;8.60;95.84
13068;BME280;6600;51.362;6.686;2023-02-01T11:26:07;101477.38;;;8.62;95.66
13068;BME280;6600;51.362;6.686;2023-02-01T11:28:35;101482.16;;;8.52;95.74
13068;BME280;6600;51.362;6.686;2023-02-01T11:31:09;101472.25;;;8.61;95.54
13068;BME280;6600;51.362;6.686;2023-02-01T11:33:37;101465.59;;;8.72;95.30
13068;BME280;6600;51.362;6.686;2023-02-01T11:36:18;101453.63;;;8.68;95.04
13068;BME280;6600;51.362;6.686;2023-02-01T11:42:05;101463.47;;;8.82;95.90
13068;BME280;6600;51.362;6.686;2023-02-01T11:44:39;101448.38;;;8.74;96.53
13068;BME280;6600;51.362;6.686;2023-02-01T11:50:00;101458.69;;;8.62;96.16
13068;BME280;6600;51.362;6.686;2023-02-01T11:55:10;101436.84;;;8.74;97.22
13068;BME280;6600;51.362;6.686;2023-02-01T11:58:04;101431.13;;;8.77;96.97
13068;BME280;6600;51.362;6.686;2023-02-01T12:00:40;101434.63;;;8.62;96.71
13068;BME280;6600;51.362;6.686;2023-02-01T12:11:30;101430.38;;;8.83;96.45
13068;BME280;6600;51.362;6.686;2023-02-01T12:22:30;101419.34;;;8.86;95.11
13068;BME280;6600;51.362;6.686;2023-02-01T12:25:03;101429.03;;;8.72;95.31
13068;BME280;6600;51.362;6.686;2023-02-01T12:36:06;101413.88;;;8.79;94.33
13068;BME280;6600;51.362;6.686;2023-02-01T12:41:36;101406.16;;;8.84;94.27
13068;BME280;6600;51.362;6.686;2023-02-01T12:44:11;101399.22;;;8.90;94.11
13068;BME280;6600;51.362;6.686;2023-02-01T12:46:49;101404.41;;;8.77;94.46
13068;BME280;6600;51.362;6.686;2023-02-01T12:49:21;101395.53;;;8.91;93.48
13068;BME280;6600;51.362;6.686;2023-02-01T12:51:55;101399.88;;;8.92;93.73
13068;BME280;6600;51.362;6.686;2023-02-01T12:54:48;101401.34;;;8.80;93.94
13068;BME280;6600;51.362;6.686;2023-02-01T12:57:37;101399.22;;;8.90;93.46
13068;BME280;6600;51.362;6.686;2023-02-01T13:02:44;101387.28;;;8.86;92.00
13068;BME280;6600;51.362;6.686;2023-02-01T13:08:05;101380.78;;;8.95;92.35
13068;BME280;6600;51.362;6.686;2023-02-01T13:10:57;101391.84;;;8.92;92.02
13068;BME280;6600;51.362;6.686;2023-02-01T13:16:38;101389.34;;;8.90;91.98
13068;BME280;6600;51.362;6.686;2023-02-01T13:19:20;101394.16;;;8.95;92.06
13068;BME280;6600;51.362;6.686;2023-02-01T13:21:52;101388.19;;;8.93;92.00
13068;BME280;6600;51.362;6.686;2023-02-01T13:24:32;101385.69;;;8.91;92.25
13068;BME280;6600;51.362;6.686;2023-02-01T13:26:59;101376.44;;;8.94;92.16
13068;BME280;6600;51.362;6.686;2023-02-01T13:29:27;101389.81;;;8.94;92.44
13068;BME280;6600;51.362;6.686;2023-02-01T13:32:06;101382.84;;;8.93;92.30
13068;BME280;6600;51.362;6.686;2023-02-01T13:34:57;101386.13;;;8.95;92.96
13068;BME280;6600;51.362;6.686;2023-02-01T13:37:43;101378.75;;;8.97;92.58
13068;BME280;6600;51.362;6.686;2023-02-01T13:40:36;101383.41;;;9.09;92.19
13068;BME280;6600;51.362;6.686;2023-02-01T13:43:09;101386.16;;;9.16;91.94
13068;BME280;6600;51.362;6.686;2023-02-01T13:45:51;101387.16;;;9.15;91.64
13068;BME280;6600;51.362;6.686;2023-02-01T13:48:28;101376.94;;;9.19;91.45
13068;BME280;6600;51.362;6.686;2023-02-01T13:50:56;101385.13;;;9.17;91.09
13068;BME280;6600;51.362;6.686;2023-02-01T13:53:29;101386.47;;;9.28;91.00
13068;BME280;6600;51.362;6.686;2023-02-01T13:56:01;101363.16;;;9.43;90.91
13068;BME280;6600;51.362;6.686;2023-02-01T13:58:40;101378.44;;;9.49;90.56
13068;BME280;6600;51.362;6.686;2023-02-01T14:03:59;101382.97;;;9.48;90.39
13068;BME280;6600;51.362;6.686;2023-02-01T14:19:23;101396.88;;;9.37;90.37
13068;BME280;6600;51.362;6.686;2023-02-01T14:21:54;101408.81;;;9.41;90.02
13068;BME280;6600;51.362;6.686;2023-02-01T14:24:26;101394.50;;;9.49;90.39
13068;BME280;6600;51.362;6.686;2023-02-01T14:26:53;101408.97;;;9.54;90.43
13068;BME280;6600;51.362;6.686;2023-02-01T14:29:27;101403.19;;;9.51;90.75
13068;BME280;6600;51.362;6.686;2023-02-01T14:32:15;101409.09;;;9.46;90.01
13068;BME280;6600;51.362;6.686;2023-02-01T14:42:24;101405.91;;;9.57;90.11
13068;BME280;6600;51.362;6.686;2023-02-01T14:44:54;101415.78;;;9.57;90.76
13068;BME280;6600;51.362;6.686;2023-02-01T14:58:04;101420.41;;;9.48;91.15
13068;BME280;6600;51.362;6.686;2023-02-01T15:00:31;101421.56;;;9.39;91.52
13068;BME280;6600;51.362;6.686;2023-02-01T15:03:25;101430.38;;;9.54;91.11
13068;BME280;6600;51.362;6.686;2023-02-01T15:05:58;101428.66;;;9.47;91.02
13068;BME280;6600;51.362;6.686;2023-02-01T15:08:30;101425.41;;;9.51;91.38
13068;BME280;6600;51.362;6.686;2023-02-01T15:10:58;101421.31;;;9.55;91.49
13068;BME280;6600;51.362;6.686;2023-02-01T15:13:27;101420.41;;;9.48;91.16
13068;BME280;6600;51.362;6.686;2023-02-01T15:18:29;101425.53;;;9.64;91.15
13068;BME280;6600;51.362;6.686;2023-02-01T15:20:59;101413.28;;;9.55;91.63
13068;BME280;6600;51.362;6.686;2023-02-01T15:23:26;101420.41;;;9.48;91.31
13068;BME280;6600;51.362;6.686;2023-02-01T15:25:52;101419.22;;;9.51;91.42
13068;BME280;6600;51.362;6.686;2023-02-01T15:28:18;101412.28;;;9.56;91.23
13068;BME280;6600;51.362;6.686;2023-02-01T15:30:54;101425.41;;;9.51;91.41
13068;BME280;6600;51.362;6.686;2023-02-01T15:33:20;101423.34;;;9.53;91.42
13068;BME280;6600;51.362;6.686;2023-02-01T15:35:49;101417.38;;;9.51;91.29
13068;BME280;6600;51.362;6.686;2023-02-01T15:41:13;101416.03;;;9.41;91.84
13068;BME280;6600;51.362;6.686;2023-02-01T15:46:32;101414.16;;;9.41;92.15
13068;BME280;6600;51.362;6.686;2023-02-01T15:48:59;101411.97;;;9.24;92.46
13068;BME280;6600;51.362;6.686;2023-02-01T15:51:27;101415.59;;;9.37;92.59